Time;durP1;ratioP1;P1;durP2;ratioP2;P2;SDS_P1;SDS_P2;PMS_P1;PMS_P2;Temp;Humidity;BMP_temperature;BMP_pressure;BME280_temperature;BME280_humidity;BME280_pressure;Samples;Min_cycle;Max_cycle;Signal;HPM_P1;HPM_P2
2022/09/11 00:00:52;;;;;;;20.98;14.07;;;;;;;14.92;100.00;101802.41;10591629;28;20475;-71
2022/09/11 00:05:53;;;;;;;13.50;12.13;;;;;;;14.92;100.00;101812.47;10571578;28;20116;-71
2022/09/11 00:10:53;;;;;;;13.35;11.68;;;;;;;14.91;100.00;101808.91;10569651;28;20036;-71
2022/09/11 00:15:54;;;;;;;16.30;13.10;;;;;;;14.99;100.00;101799.69;10588255;28;20093;-71
2022/09/11 00:20:55;;;;;;;16.60;14.15;;;;;;;15.08;100.00;101804.75;10569579;28;20421;-71
2022/09/11 00:26:00;;;;;;;14.70;13.10;;;;;;;15.24;100.00;101809.00;10573740;28;20035;-71
2022/09/11 00:31:02;;;;;;;17.45;13.73;;;;;;;15.34;100.00;101806.69;10573446;28;20031;-71
2022/09/11 00:36:06;;;;;;;24.58;14.60;;;;;;;15.50;100.00;101805.47;10570397;28;20106;-71
2022/09/11 00:41:10;;;;;;;17.60;15.25;;;;;;;15.62;100.00;101804.88;10571672;28;20051;-71
2022/09/11 00:46:10;;;;;;;16.50;13.35;;;;;;;15.65;100.00;101799.00;10586704;28;20110;-71
2022/09/11 00:51:11;;;;;;;33.88;14.57;;;;;;;15.65;100.00;101794.38;10586863;28;20034;-70
2022/09/11 00:56:11;;;;;;;18.15;13.30;;;;;;;15.64;100.00;101797.31;10570186;28;20340;-71
2022/09/11 01:01:13;;;;;;;16.75;13.07;;;;;;;15.61;100.00;101797.72;10551258;28;20076;-70
2022/09/11 01:06:13;;;;;;;26.35;14.75;;;;;;;15.54;100.00;101803.19;10584926;28;20395;-71
2022/09/11 01:11:23;;;;;;;17.90;13.40;;;;;;;15.49;100.00;101811.16;10584187;28;20032;-71
2022/09/11 01:16:53;;;;;;;16.98;13.13;;;;;;;15.41;100.00;101805.88;10586980;28;20035;-71
2022/09/11 01:22:05;;;;;;;12.75;11.55;;;;;;;15.37;100.00;101808.19;10547953;28;20475;-72
2022/09/11 01:27:38;;;;;;;15.38;13.02;;;;;;;15.35;100.00;101811.13;10568242;28;20075;-70
2022/09/11 01:33:01;;;;;;;17.48;14.40;;;;;;;15.31;100.00;101812.56;10586196;28;20027;-71
2022/09/11 01:38:21;;;;;;;16.20;11.50;;;;;;;15.20;100.00;101805.00;10567313;28;20032;-71
2022/09/11 01:43:27;;;;;;;13.98;12.52;;;;;;;15.10;100.00;101812.75;10568407;28;20044;-70
2022/09/11 01:48:41;;;;;;;16.50;11.63;;;;;;;15.00;100.00;101802.22;10574431;28;20036;-71
2022/09/11 01:53:42;;;;;;;15.35;13.55;;;;;;;14.92;100.00;101809.75;10587782;28;20119;-71
2022/09/11 01:58:42;;;;;;;15.07;12.23;;;;;;;14.81;100.00;101797.53;10571956;28;20363;-71
2022/09/11 02:03:49;;;;;;;14.20;12.52;;;;;;;14.75;100.00;101806.53;10565845;28;20043;-71
2022/09/11 02:08:52;;;;;;;14.80;13.00;;;;;;;14.66;100.00;101808.59;10566582;28;20019;-71
2022/09/11 02:14:15;;;;;;;17.08;12.10;;;;;;;14.62;100.00;101815.50;10565527;28;20425;-71
2022/09/11 02:19:19;;;;;;;16.25;14.55;;;;;;;14.54;100.00;101818.38;10584218;28;20160;-71
2022/09/11 02:24:21;;;;;;;18.15;12.90;;;;;;;14.46;100.00;101822.09;10566174;28;20050;-71
2022/09/11 02:29:23;;;;;;;17.45;14.18;;;;;;;14.41;100.00;101824.56;10583033;28;20118;-70
2022/09/11 02:34:28;;;;;;;16.63;13.98;;;;;;;14.40;100.00;101839.22;10567286;28;20043;-71
2022/09/11 02:40:25;;;;;;;17.45;12.88;;;;;;;14.32;100.00;101823.03;10584568;28;20024;-71
2022/09/11 02:45:40;;;;;;;17.80;14.00;;;;;;;14.28;100.00;101821.75;10411118;28;20127;-70
2022/09/11 02:51:08;;;;;;;24.52;15.60;;;;;;;14.29;100.00;101817.97;10536370;28;20367;-71
2022/09/11 02:56:18;;;;;;;25.75;16.45;;;;;;;14.25;100.00;101824.88;10584553;28;20120;-71
2022/09/11 03:01:18;;;;;;;16.60;14.70;;;;;;;14.17;100.00;101834.06;10585332;28;20427;-71
2022/09/11 03:06:20;;;;;;;15.60;13.98;;;;;;;14.13;100.00;101833.56;10564163;28;20035;-71
2022/09/11 03:11:21;;;;;;;18.23;16.45;;;;;;;14.12;100.00;101834.63;10564782;28;20023;-72
2022/09/11 03:16:21;;;;;;;15.50;13.93;;;;;;;14.05;100.00;101838.34;10587511;28;20039;-71
2022/09/11 03:21:22;;;;;;;16.77;14.25;;;;;;;14.02;100.00;101838.75;10582064;28;20360;-70
2022/09/11 03:26:23;;;;;;;18.90;13.68;;;;;;;13.95;100.00;101833.25;10546687;28;20428;-71
2022/09/11 03:31:23;;;;;;;23.02;14.93;;;;;;;13.87;100.00;101831.50;10565173;28;20053;-71
2022/09/11 03:36:24;;;;;;;14.43;13.00;;;;;;;13.82;100.00;101830.41;10571612;28;20085;-70
2022/09/11 03:41:25;;;;;;;16.27;13.75;;;;;;;13.80;100.00;101832.47;10589324;28;20087;-71
2022/09/11 03:46:26;;;;;;;19.95;14.07;;;;;;;13.74;100.00;101850.44;10589319;28;20036;-70
2022/09/11 03:51:26;;;;;;;15.88;13.48;;;;;;;13.72;100.00;101845.19;10571018;28;20039;-71
2022/09/11 03:56:30;;;;;;;20.00;15.60;;;;;;;13.65;100.00;101836.09;10570742;28;20503;-71
2022/09/11 04:01:30;;;;;;;19.73;16.35;;;;;;;13.64;100.00;101834.44;10588964;28;20036;-71
2022/09/11 04:06:33;;;;;;;18.88;15.32;;;;;;;13.60;100.00;101844.03;10588649;28;20433;-71
2022/09/11 04:11:37;;;;;;;18.00;16.08;;;;;;;13.56;100.00;101837.31;10589118;28;20074;-71
2022/09/11 04:16:38;;;;;;;21.00;17.52;;;;;;;13.57;100.00;101841.69;10591248;28;20063;-72
2022/09/11 04:21:38;;;;;;;21.65;15.82;;;;;;;13.56;100.00;101847.31;10590838;28;20542;-71
2022/09/11 04:26:38;;;;;;;18.20;16.08;;;;;;;13.51;100.00;101845.19;10570395;28;20050;-71
2022/09/11 04:31:40;;;;;;;21.98;17.08;;;;;;;13.55;100.00;101851.09;10570514;28;20089;-71
2022/09/11 04:36:40;;;;;;;20.30;18.10;;;;;;;13.53;100.00;101850.44;10586817;28;20115;-71
2022/09/11 04:41:40;;;;;;;21.65;18.63;;;;;;;13.46;100.00;101856.66;10588113;28;20054;-71
2022/09/11 04:46:41;;;;;;;22.27;17.85;;;;;;;13.45;100.00;101862.28;10586905;28;20039;-71
2022/09/11 04:51:42;;;;;;;19.48;17.30;;;;;;;13.41;100.00;101872.72;10587472;28;20055;-71
2022/09/11 04:56:42;;;;;;;22.92;18.85;;;;;;;13.40;100.00;101881.06;10568809;28;20068;-71
2022/09/11 05:01:43;;;;;;;21.00;18.83;;;;;;;13.38;100.00;101891.31;10568737;28;20036;-71
2022/09/11 05:06:47;;;;;;;31.92;21.73;;;;;;;13.37;100.00;101887.75;10567960;28;20027;-72
2022/09/11 05:11:47;;;;;;;30.25;21.52;;;;;;;13.45;100.00;101892.22;10587636;28;20032;-71
2022/09/11 05:16:48;;;;;;;33.13;23.60;;;;;;;13.48;100.00;101895.41;10585927;28;20035;-72
2022/09/11 05:21:48;;;;;;;27.58;23.25;;;;;;;13.49;100.00;101899.78;10569433;28;20059;-72
2022/09/11 05:26:48;;;;;;;26.08;21.38;;;;;;;13.52;100.00;101911.34;10590300;28;20391;-72
2022/09/11 05:31:49;;;;;;;25.83;21.67;;;;;;;13.58;100.00;101916.84;10566968;28;20038;-71
2022/09/11 05:36:50;;;;;;;37.17;22.77;;;;;;;13.61;100.00;101915.63;10584984;28;20062;-72
2022/09/11 05:41:51;;;;;;;38.42;24.92;;;;;;;13.72;100.00;101912.41;10567309;28;20048;-72
2022/09/11 05:46:52;;;;;;;28.30;23.75;;;;;;;13.85;100.00;101922.59;10568025;28;20410;-71
2022/09/11 05:51:52;;;;;;;34.38;23.42;;;;;;;13.93;100.00;101919.72;10584827;28;20073;-71
2022/09/11 05:56:53;;;;;;;36.75;26.30;;;;;;;14.10;100.00;101918.44;10583544;28;20035;-72
2022/09/11 06:01:53;;;;;;;42.72;26.77;;;;;;;14.29;100.00;101918.78;10583281;28;20105;-71
2022/09/11 06:06:54;;;;;;;35.35;27.55;;;;;;;15.13;100.00;101916.00;10583829;28;20044;-71
2022/09/11 06:11:55;;;;;;;38.67;31.50;;;;;;;16.27;100.00;101926.16;10565936;28;20048;-71
2022/09/11 06:16:55;;;;;;;42.90;31.23;;;;;;;17.22;100.00;101915.69;10582292;28;20038;-72
2022/09/11 06:21:56;;;;;;;40.92;33.40;;;;;;;17.78;100.00;101917.75;10584019;28;20455;-72
2022/09/11 06:26:56;;;;;;;43.17;33.20;;;;;;;18.39;100.00;101913.47;10582996;28;20043;-72
2022/09/11 06:31:58;;;;;;;38.20;30.80;;;;;;;19.09;100.00;101909.63;10564967;28;20463;-71
2022/09/11 06:36:59;;;;;;;27.85;24.83;;;;;;;19.80;100.00;101911.63;10581717;28;20106;-72
2022/09/11 06:42:01;;;;;;;30.08;23.42;;;;;;;20.71;100.00;101914.16;10582371;28;20055;-71
2022/09/11 06:47:02;;;;;;;28.02;22.00;;;;;;;21.54;100.00;101911.00;10584963;28;20468;-72
2022/09/11 06:52:03;;;;;;;29.40;19.17;;;;;;;21.56;100.00;101913.50;10584854;28;20123;-71
2022/09/11 06:57:03;;;;;;;26.40;17.50;;;;;;;21.55;100.00;101912.66;10583477;28;20046;-71
2022/09/11 07:02:04;;;;;;;17.65;15.85;;;;;;;22.27;100.00;101917.56;10583093;28;20383;-72
2022/09/11 07:07:04;;;;;;;16.10;12.20;;;;;;;22.24;100.00;101928.28;10584562;28;20478;-73
2022/09/11 07:12:05;;;;;;;14.93;12.43;;;;;;;22.59;100.00;101932.66;10591258;28;20062;-73
2022/09/11 07:17:05;;;;;;;16.45;14.73;;;;;;;23.09;100.00;101931.75;10590417;28;20047;-74
2022/09/11 07:22:06;;;;;;;15.93;14.18;;;;;;;23.50;100.00;101951.59;10571538;28;20433;-74
2022/09/11 07:27:07;;;;;;;15.82;14.02;;;;;;;23.82;100.00;101952.53;10571928;28;20126;-76
2022/09/11 07:32:07;;;;;;;14.80;11.00;;;;;;;24.14;100.00;101946.19;10506173;28;20047;-73
2022/09/11 07:37:08;;;;;;;14.02;10.65;;;;;;;24.36;100.00;101960.78;10588604;28;20394;-74
2022/09/11 07:42:08;;;;;;;13.85;10.75;;;;;;;24.49;100.00;101962.28;10571362;28;20601;-74
2022/09/11 07:47:09;;;;;;;11.35;8.38;;;;;;;24.78;100.00;101953.63;10591512;28;20039;-74
2022/09/11 07:52:09;;;;;;;7.20;6.50;;;;;;;24.95;100.00;101959.84;10576234;28;20035;-79
2022/09/11 07:57:10;;;;;;;7.22;6.30;;;;;;;25.41;100.00;101953.72;10591348;28;20035;-81
2022/09/11 08:02:11;;;;;;;5.88;4.88;;;;;;;25.63;100.00;101948.78;10570779;28;20077;-81
2022/09/11 08:07:11;;;;;;;3.85;3.30;;;;;;;25.68;100.00;101957.09;10554558;28;20454;-78
2022/09/11 08:12:12;;;;;;;3.38;3.08;;;;;;;26.25;100.00;101960.81;10570849;28;20027;-77
2022/09/11 08:17:13;;;;;;;15.77;3.80;;;;;;;26.24;100.00;101958.34;10569638;28;20031;-80
2022/09/11 08:22:13;;;;;;;3.92;3.45;;;;;;;26.27;100.00;101963.34;10588906;28;20028;-78
2022/09/11 08:27:13;;;;;;;4.28;3.35;;;;;;;26.91;100.00;101959.94;10587178;28;20118;-79
2022/09/11 08:32:14;;;;;;;3.50;3.20;;;;;;;26.98;100.00;101977.16;10554136;28;20035;-80
2022/09/11 08:37:16;;;;;;;6.63;3.95;;;;;;;27.35;100.00;101975.97;10569674;28;20145;-73
2022/09/11 08:42:16;;;;;;;4.05;3.75;;;;;;;27.41;100.00;101976.75;10587284;28;20078;-73
2022/09/11 08:47:23;;;;;;;4.10;3.70;;;;;;;26.92;100.00;101983.84;10568157;28;20036;-73
2022/09/11 08:52:23;;;;;;;5.22;4.43;;;;;;;27.10;100.00;101982.41;10569009;28;20027;-73
2022/09/11 08:57:29;;;;;;;6.13;2.85;;;;;;;26.98;100.00;101977.16;10568381;28;20039;-73
2022/09/11 09:02:49;;;;;;;;;;;;;;;27.20;100.00;101981.59;10586001;28;20024;-73
2022/09/11 09:08:15;;;;;;;5.50;3.17;;;;;;;27.10;100.00;101982.41;10568082;28;19911;-73
2022/09/11 09:13:57;;;;;;;4.20;3.67;;;;;;;27.08;100.00;101982.69;10568790;28;20152;-73
2022/09/11 09:19:07;;;;;;;10.05;3.15;;;;;;;25.93;100.00;101988.81;10578623;28;20194;-73
2022/09/11 09:24:18;;;;;;;4.22;3.25;;;;;;;24.92;100.00;101987.22;10568347;28;20024;-73
2022/09/11 09:29:23;;;;;;;2.97;2.45;;;;;;;23.46;100.00;102005.75;10566401;28;20107;-73
2022/09/11 09:34:24;;;;;;;4.53;3.53;;;;;;;23.47;100.00;101999.13;10569291;28;20455;-73
2022/09/11 09:39:24;;;;;;;3.03;2.80;;;;;;;26.02;100.00;102001.06;10552129;28;20057;-73
2022/09/11 09:44:43;;;;;;;2.70;2.60;;;;;;;27.83;100.00;101994.97;10584401;28;20052;-73
2022/09/11 09:49:43;;;;;;;4.35;3.08;;;;;;;29.12;100.00;101996.38;10583881;28;20386;-73
2022/09/11 09:54:51;;;;;;;15.07;3.08;;;;;;;29.54;89.40;102005.91;10549265;28;20039;-73
2022/09/11 09:59:56;;;;;;;2.28;1.88;;;;;;;29.22;100.00;101996.25;10565924;28;20024;-74
2022/09/11 10:05:18;;;;;;;9.57;2.50;;;;;;;29.50;100.00;101993.69;10567065;28;20356;-73
2022/09/11 10:10:26;;;;;;;2.55;2.35;;;;;;;28.99;98.47;101992.31;10566043;28;20315;-73
2022/09/11 10:15:27;;;;;;;7.93;2.53;;;;;;;29.56;86.10;101992.50;10566023;28;20036;-73
2022/09/11 10:20:30;;;;;;;2.88;2.60;;;;;;;30.10;86.68;101989.22;10568782;28;20035;-74
2022/09/11 10:25:30;;;;;;;5.45;2.03;;;;;;;29.59;92.83;101989.09;10562825;28;20066;-73
2022/09/11 10:30:35;;;;;;;3.70;2.33;;;;;;;27.11;100.00;101992.41;10565136;28;20360;-73
2022/09/11 10:35:36;;;;;;;4.30;2.17;;;;;;;25.66;100.00;101989.84;10564753;28;20108;-73
2022/09/11 10:40:38;;;;;;;2.88;2.60;;;;;;;26.38;100.00;101976.94;10565471;28;20044;-73
2022/09/11 10:45:39;;;;;;;2.78;2.58;;;;;;;27.90;95.06;101973.19;10583110;28;20040;-74
2022/09/11 10:50:40;;;;;;;3.25;2.58;;;;;;;29.46;93.10;101965.56;10566034;28;20039;-73
2022/09/11 10:55:43;;;;;;;4.40;2.38;;;;;;;29.77;95.41;101965.13;10583837;28;20379;-74
2022/09/11 11:00:44;;;;;;;2.15;2.05;;;;;;;30.10;81.16;101968.84;10564362;28;20034;-74
2022/09/11 11:06:06;;;;;;;3.20;2.78;;;;;;;31.01;85.55;101971.16;10563221;28;20373;-76
2022/09/11 11:11:34;;;;;;;4.43;2.97;;;;;;;29.96;89.88;101963.16;10582173;28;20032;-74
2022/09/11 11:16:50;;;;;;;2.58;2.38;;;;;;;30.33;86.31;101962.31;10564379;28;20038;-75
2022/09/11 11:21:59;;;;;;;2.60;2.42;;;;;;;28.43;100.00;101954.69;10582378;28;20363;-74
2022/09/11 11:27:27;;;;;;;3.20;2.70;;;;;;;28.52;100.00;101957.66;10581101;28;20474;-74
2022/09/11 11:33:02;;;;;;;2.25;2.15;;;;;;;29.31;98.76;101961.00;10582406;28;20035;-74
2022/09/11 11:38:09;;;;;;;2.10;1.88;;;;;;;30.44;87.99;101950.94;10581741;28;20127;-71
2022/09/11 11:43:11;;;;;;;2.03;1.92;;;;;;;29.72;100.00;101957.69;10564263;28;20044;-74
2022/09/11 11:48:14;;;;;;;1.90;1.80;;;;;;;27.45;100.00;101959.22;10583368;28;20063;-74
2022/09/11 11:53:48;;;;;;;2.47;2.28;;;;;;;25.86;100.00;101950.25;10583867;28;20035;-74
2022/09/11 11:58:52;;;;;;;1.58;1.58;;;;;;;25.59;100.00;101952.34;10570161;28;20035;-75
2022/09/11 12:04:01;;;;;;;2.53;1.95;;;;;;;25.29;100.00;101951.16;10587132;28;20028;-76
2022/09/11 12:09:02;;;;;;;3.28;2.50;;;;;;;26.38;100.00;101956.66;10572213;28;20039;-75
2022/09/11 12:14:02;;;;;;;4.32;2.92;;;;;;;26.02;100.00;101953.88;10587757;28;20038;-75
2022/09/11 12:19:18;;;;;;;2.88;2.58;;;;;;;25.46;100.00;101953.72;10587415;28;20027;-74
2022/09/11 12:24:19;;;;;;;2.70;2.50;;;;;;;24.52;100.00;101950.69;10569803;28;20028;-75
2022/09/11 12:29:41;;;;;;;2.88;2.65;;;;;;;24.37;100.00;101940.28;10569640;28;20050;-73
2022/09/11 12:34:45;;;;;;;3.75;2.40;;;;;;;24.34;100.00;101938.06;10570204;28;20039;-75
2022/09/11 12:39:52;;;;;;;3.30;2.72;;;;;;;24.17;100.00;101918.00;10570389;28;20038;-74
2022/09/11 12:44:53;;;;;;;2.63;2.47;;;;;;;24.05;100.00;101923.69;10588135;28;20036;-74
2022/09/11 12:50:12;;;;;;;2.17;2.08;;;;;;;23.94;100.00;101932.19;10589307;28;20359;-74
2022/09/11 12:55:28;;;;;;;5.13;3.00;;;;;;;24.18;100.00;101933.50;10569158;28;20028;-74
2022/09/11 13:00:39;;;;;;;3.63;2.17;;;;;;;24.26;100.00;101918.34;10586634;28;20409;-74
2022/09/11 13:05:39;;;;;;;4.40;3.55;;;;;;;24.32;100.00;101926.44;10567880;28;20441;-74
2022/09/11 13:10:40;;;;;;;2.72;2.40;;;;;;;24.30;100.00;101913.94;10568527;28;20024;-74
2022/09/11 13:15:41;;;;;;;4.40;3.05;;;;;;;24.06;100.00;101908.78;10550286;28;20059;-73
2022/09/11 13:20:42;;;;;;;2.28;2.17;;;;;;;23.90;100.00;101913.34;10567224;28;20027;-74
2022/09/11 13:25:42;;;;;;;3.97;2.53;;;;;;;23.80;100.00;101915.16;10586566;28;20078;-76
2022/09/11 13:30:54;;;;;;;2.80;2.40;;;;;;;23.83;100.00;101906.34;10566855;28;20050;-73
2022/09/11 13:35:56;;;;;;;2.25;2.13;;;;;;;23.72;100.00;101901.81;10585404;28;20062;-73
2022/09/11 13:40:58;;;;;;;9.10;2.92;;;;;;;23.54;100.00;101901.03;10584469;28;20100;-73
2022/09/11 13:46:31;;;;;;;2.55;2.35;;;;;;;23.42;100.00;101889.28;10566815;28;20040;-75
2022/09/11 13:51:31;;;;;;;2.72;2.03;;;;;;;23.38;100.00;101888.16;10571668;28;20048;-73
2022/09/11 13:56:37;;;;;;;6.03;2.85;;;;;;;23.10;100.00;101886.44;10566315;28;20031;-73
2022/09/11 14:01:54;;;;;;;7.63;2.60;;;;;;;23.33;100.00;101877.88;10585042;28;20070;-73
2022/09/11 14:06:54;;;;;;;2.05;1.92;;;;;;;24.20;100.00;101875.94;10568206;28;20049;-74
2022/09/11 14:12:01;;;;;;;6.00;2.67;;;;;;;24.35;100.00;101878.84;10549139;28;20352;-74
2022/09/11 14:17:02;;;;;;;6.13;2.45;;;;;;;24.28;100.00;101874.63;10552429;28;20448;-74
2022/09/11 14:22:14;;;;;;;7.57;2.63;;;;;;;24.00;100.00;101873.88;10565298;28;20020;-74
2022/09/11 14:27:29;;;;;;;3.88;2.65;;;;;;;24.87;100.00;101868.09;10583000;28;20036;-74
2022/09/11 14:32:31;;;;;;;3.50;2.77;;;;;;;25.28;100.00;101869.09;10583492;28;20470;-74
2022/09/11 14:37:33;;;;;;;3.15;2.85;;;;;;;24.71;100.00;101869.94;10565728;28;20029;-74
2022/09/11 14:42:34;;;;;;;3.00;2.80;;;;;;;24.24;100.00;101868.78;10586337;28;20051;-72
2022/09/11 14:47:35;;;;;;;2.55;2.35;;;;;;;23.82;100.00;101866.78;10567037;28;20035;-72
2022/09/11 14:52:36;;;;;;;3.65;1.98;;;;;;;23.39;100.00;101865.78;10582544;28;20063;-73
2022/09/11 14:57:36;;;;;;;4.28;2.90;;;;;;;23.12;100.00;101853.88;10564328;28;20475;-73
2022/09/11 15:02:37;;;;;;;3.67;3.13;;;;;;;22.85;100.00;101859.31;10582356;28;20069;-72
2022/09/11 15:07:37;;;;;;;5.40;2.03;;;;;;;22.69;100.00;101852.75;10585574;28;20028;-72
2022/09/11 15:12:38;;;;;;;4.15;2.33;;;;;;;22.58;100.00;101848.19;10585000;28;20372;-73
2022/09/11 15:17:38;;;;;;;7.55;3.13;;;;;;;22.51;100.00;101843.66;10582270;28;20039;-72
2022/09/11 15:22:39;;;;;;;3.03;2.83;;;;;;;22.51;100.00;101849.19;10581931;28;20088;-72
2022/09/11 15:27:39;;;;;;;4.20;3.13;;;;;;;22.34;100.00;101839.28;10565460;28;20039;-72
2022/09/11 15:32:39;;;;;;;4.60;2.03;;;;;;;22.10;100.00;101836.69;10589996;28;20032;-72
2022/09/11 15:37:40;;;;;;;2.38;2.28;;;;;;;22.01;100.00;101843.69;10589278;28;20034;-73
2022/09/11 15:42:41;;;;;;;3.03;2.83;;;;;;;22.12;100.00;101833.69;10590543;28;20482;-72
2022/09/11 15:47:42;;;;;;;2.55;2.35;;;;;;;22.34;100.00;101829.09;10570953;28;20047;-72
2022/09/11 15:52:42;;;;;;;3.10;2.90;;;;;;;22.29;100.00;101834.50;10588605;28;20056;-72
2022/09/11 15:57:43;;;;;;;2.70;2.47;;;;;;;22.22;100.00;101828.34;10591994;28;20447;-72
2022/09/11 16:02:43;;;;;;;7.05;2.83;;;;;;;22.17;100.00;101836.53;10571764;28;20352;-72
2022/09/11 16:07:43;;;;;;;2.15;2.05;;;;;;;22.21;100.00;101837.72;10589315;28;20032;-72
2022/09/11 16:12:45;;;;;;;4.10;2.95;;;;;;;22.27;100.00;101825.66;10571983;28;20122;-72
2022/09/11 16:17:47;;;;;;;2.38;2.28;;;;;;;22.33;100.00;101838.44;10587178;28;20039;-72
2022/09/11 16:22:47;;;;;;;2.42;2.33;;;;;;;22.34;100.00;101820.81;10570067;28;20107;-72
2022/09/11 16:27:48;;;;;;;2.35;2.25;;;;;;;22.26;100.00;101821.22;10587964;28;20036;-72
2022/09/11 16:32:49;;;;;;;3.75;2.67;;;;;;;22.18;100.00;101811.47;10587532;28;20039;-72
2022/09/11 16:37:49;;;;;;;4.93;2.72;;;;;;;22.01;100.00;101814.19;10568510;28;20031;-72
2022/09/11 16:42:50;;;;;;;3.45;2.97;;;;;;;21.85;100.00;101801.25;10569026;28;20127;-72
2022/09/11 16:47:51;;;;;;;3.03;2.83;;;;;;;21.72;100.00;101799.66;10592541;28;20042;-72
2022/09/11 16:52:53;;;;;;;5.88;3.30;;;;;;;21.54;100.00;101800.75;10587830;28;20476;-72
2022/09/11 16:57:53;;;;;;;4.78;2.25;;;;;;;21.40;100.00;101787.53;10586751;28;20038;-72
2022/09/11 17:02:53;;;;;;;6.75;3.00;;;;;;;21.25;100.00;101782.53;10586316;28;20032;-72
2022/09/11 17:07:54;;;;;;;9.82;2.67;;;;;;;21.13;100.00;101788.94;10586242;28;20100;-72
2022/09/11 17:12:54;;;;;;;5.82;2.95;;;;;;;21.03;100.00;101787.94;10587865;28;20035;-72
2022/09/11 17:17:55;;;;;;;3.58;3.08;;;;;;;20.90;100.00;101789.06;10588419;28;20059;-72
2022/09/11 17:22:55;;;;;;;5.03;2.72;;;;;;;20.80;100.00;101775.06;10585061;28;20039;-72
2022/09/11 17:27:55;;;;;;;4.13;2.58;;;;;;;20.68;100.00;101783.38;10568004;28;20039;-72
2022/09/11 17:32:56;;;;;;;4.53;2.97;;;;;;;20.57;100.00;101781.47;10568348;28;20047;-72
2022/09/11 17:37:57;;;;;;;7.75;3.10;;;;;;;20.44;100.00;101777.03;10587402;28;20036;-72
2022/09/11 17:42:57;;;;;;;8.65;4.03;;;;;;;20.28;100.00;101775.88;10567113;28;20056;-72
2022/09/11 17:48:00;;;;;;;3.65;3.10;;;;;;;20.11;100.00;101767.53;10583921;28;20031;-72
2022/09/11 17:53:00;;;;;;;3.95;3.63;;;;;;;19.88;100.00;101768.38;10566038;28;20027;-72
2022/09/11 17:58:01;;;;;;;8.18;4.55;;;;;;;19.65;100.00;101771.91;10584629;28;20093;-72
2022/09/11 18:03:01;;;;;;;5.40;4.88;;;;;;;19.47;100.00;101763.75;10566317;28;20035;-72
2022/09/11 18:08:01;;;;;;;3.13;2.83;;;;;;;19.24;100.00;101759.00;10583739;28;20479;-72
2022/09/11 18:13:02;;;;;;;3.35;3.15;;;;;;;19.04;100.00;101762.88;10584262;28;20081;-72
2022/09/11 18:18:02;;;;;;;4.90;3.95;;;;;;;18.87;100.00;101759.13;10565543;28;20043;-72
2022/09/11 18:23:03;;;;;;;5.18;3.42;;;;;;;18.74;100.00;101767.53;10584106;28;20436;-72
2022/09/11 18:28:04;;;;;;;9.18;3.90;;;;;;;18.58;100.00;101758.84;10583696;28;20536;-72
2022/09/11 18:33:04;;;;;;;3.72;3.42;;;;;;;18.44;100.00;101775.66;10585854;28;20028;-73
2022/09/11 18:38:05;;;;;;;3.60;3.22;;;;;;;18.31;100.00;101766.56;10565383;28;20043;-72
2022/09/11 18:43:07;;;;;;;2.78;2.58;;;;;;;18.19;100.00;101762.88;10564137;28;20184;-72
2022/09/11 18:48:07;;;;;;;7.40;4.40;;;;;;;18.07;100.00;101762.78;10564431;28;20035;-72
2022/09/11 18:53:08;;;;;;;4.18;3.83;;;;;;;17.95;100.00;101766.50;10582296;28;20098;-72
2022/09/11 18:58:09;;;;;;;3.80;3.50;;;;;;;17.83;100.00;101763.63;10583872;28;20069;-72
2022/09/11 19:03:10;;;;;;;4.85;4.35;;;;;;;17.74;100.00;101763.06;10588490;28;20035;-72
2022/09/11 19:08:10;;;;;;;5.13;4.03;;;;;;;17.63;100.00;101769.25;10595904;28;20043;-72
2022/09/11 19:13:12;;;;;;;5.22;4.50;;;;;;;17.51;100.00;101779.25;10596851;28;20024;-72
2022/09/11 19:18:12;;;;;;;5.32;4.88;;;;;;;17.40;100.00;101776.19;10596219;28;20165;-72
2022/09/11 19:23:13;;;;;;;6.45;4.97;;;;;;;17.31;100.00;101773.94;10578647;28;20027;-72
2022/09/11 19:28:13;;;;;;;7.10;4.22;;;;;;;17.24;100.00;101771.25;10596764;28;20035;-72
2022/09/11 19:33:14;;;;;;;6.85;5.15;;;;;;;17.19;100.00;101771.06;10594876;28;20391;-72
2022/09/11 19:38:14;;;;;;;15.07;5.13;;;;;;;17.11;100.00;101777.63;10578758;28;20039;-72
2022/09/11 19:43:15;;;;;;;6.07;5.55;;;;;;;17.08;100.00;101791.75;10596412;28;20051;-72
2022/09/11 19:48:16;;;;;;;14.95;7.18;;;;;;;16.99;100.00;101793.06;10580772;28;20133;-72
2022/09/11 19:53:17;;;;;;;6.97;6.38;;;;;;;16.93;100.00;101785.72;10562824;28;20080;-72
2022/09/11 19:58:17;;;;;;;6.13;5.60;;;;;;;16.83;100.00;101788.09;10578838;28;20085;-72
2022/09/11 20:03:18;;;;;;;7.57;5.35;;;;;;;16.74;100.00;101787.47;10596327;28;20074;-72
2022/09/11 20:08:18;;;;;;;8.25;7.22;;;;;;;16.71;100.00;101799.66;10596142;28;20034;-72
2022/09/11 20:13:19;;;;;;;7.82;5.18;;;;;;;16.67;100.00;101792.13;10575199;28;20084;-72
2022/09/11 20:18:19;;;;;;;8.35;5.60;;;;;;;16.57;100.00;101786.28;10553449;28;20063;-72
2022/09/11 20:23:20;;;;;;;11.45;4.88;;;;;;;16.50;100.00;101781.66;10587746;28;20032;-72
2022/09/11 20:28:20;;;;;;;5.93;5.43;;;;;;;16.44;100.00;101776.22;10591726;28;20035;-72
2022/09/11 20:33:20;;;;;;;6.25;4.95;;;;;;;16.36;100.00;101777.28;10589496;28;20551;-72
2022/09/11 20:38:22;;;;;;;7.03;6.32;;;;;;;16.36;100.00;101769.09;10588734;28;20039;-71
2022/09/11 20:43:22;;;;;;;6.80;6.00;;;;;;;16.32;100.00;101778.78;10588061;28;20051;-72
2022/09/11 20:48:22;;;;;;;8.02;5.53;;;;;;;16.34;100.00;101781.31;10587805;28;20046;-72
2022/09/11 20:53:23;;;;;;;8.88;6.75;;;;;;;16.28;100.00;101772.91;10587553;28;20036;-72
2022/09/11 20:58:24;;;;;;;9.95;7.93;;;;;;;16.25;100.00;101777.97;10569556;28;20031;-72
2022/09/11 21:03:24;;;;;;;8.65;7.70;;;;;;;16.16;100.00;101771.03;10569307;28;20023;-73
2022/09/11 21:08:25;;;;;;;9.82;7.25;;;;;;;16.10;100.00;101764.53;10570077;28;20067;-73
2022/09/11 21:13:26;;;;;;;10.43;7.63;;;;;;;16.11;100.00;101765.34;10569188;28;20031;-72
2022/09/11 21:18:26;;;;;;;9.82;7.57;;;;;;;16.10;100.00;101755.50;10585996;28;20383;-72
2022/09/11 21:23:26;;;;;;;9.77;8.18;;;;;;;16.03;100.00;101752.78;10586121;28;20126;-71
2022/09/11 21:28:27;;;;;;;9.90;8.95;;;;;;;15.99;100.00;101755.09;10584769;28;20036;-72
2022/09/11 21:33:27;;;;;;;10.98;8.25;;;;;;;15.96;100.00;101760.16;10585607;28;20031;-72
2022/09/11 21:38:28;;;;;;;18.60;10.55;;;;;;;15.90;100.00;101752.81;10586016;28;20039;-72
2022/09/11 21:43:28;;;;;;;12.82;9.70;;;;;;;15.87;100.00;101756.78;10567002;28;20105;-72
2022/09/11 21:48:31;;;;;;;11.30;9.75;;;;;;;15.81;100.00;101761.19;10594066;28;20046;-72
2022/09/11 21:53:31;;;;;;;13.18;9.63;;;;;;;15.73;100.00;101758.69;10589610;28;20092;-71
2022/09/11 21:58:32;;;;;;;12.02;10.88;;;;;;;15.68;100.00;101760.38;10567282;28;20038;-71
2022/09/11 22:03:33;;;;;;;19.63;11.48;;;;;;;15.66;100.00;101763.25;10583626;28;20100;-72
2022/09/11 22:08:34;;;;;;;15.00;10.77;;;;;;;15.61;100.00;101762.25;10584768;28;20036;-72
2022/09/11 22:13:34;;;;;;;12.48;11.02;;;;;;;15.55;100.00;101753.81;10584207;28;20083;-72
2022/09/11 22:18:38;;;;;;;11.88;10.63;;;;;;;15.48;100.00;101754.88;10566336;28;20031;-72
2022/09/11 22:23:38;;;;;;;11.85;10.85;;;;;;;15.48;100.00;101746.69;10585029;28;20463;-72
2022/09/11 22:28:39;;;;;;;17.17;12.82;;;;;;;15.46;100.00;101746.88;10565718;28;20044;-72
2022/09/11 22:33:40;;;;;;;13.88;12.40;;;;;;;15.40;100.00;101744.16;10568584;28;20035;-72
2022/09/11 22:38:41;;;;;;;15.90;14.35;;;;;;;15.38;100.00;101740.78;10565289;28;20035;-72
2022/09/11 22:43:41;;;;;;;15.02;13.18;;;;;;;15.30;100.00;101729.03;10583366;28;20493;-72
2022/09/11 22:48:42;;;;;;;24.42;15.10;;;;;;;15.27;100.00;101728.63;10564752;28;20035;-71